createdAt,value
2018-05-24T00:01:32.078Z,45.47
2018-05-24T00:03:11.898Z,45.44
2018-05-24T00:04:49.076Z,45.46
2018-05-24T00:06:25.316Z,45.46
2018-05-24T00:08:02.882Z,45.45
2018-05-24T00:09:39.197Z,45.42
2018-05-24T00:11:17.232Z,45.42
2018-05-24T00:12:54.606Z,45.43
2018-05-24T00:14:31.951Z,45.42
2018-05-24T00:16:08.608Z,45.43
2018-05-24T00:17:45.363Z,45.44
2018-05-24T00:19:22.913Z,45.44
2018-05-24T00:20:59.388Z,45.43
2018-05-24T00:22:35.781Z,45.42
2018-05-24T00:24:13.250Z,45.41
2018-05-24T00:25:51.548Z,45.40
2018-05-24T00:27:31.395Z,45.39
2018-05-24T00:29:08.077Z,45.42
2018-05-24T00:30:45.178Z,45.39
2018-05-24T00:32:22.231Z,45.39
2018-05-24T00:33:59.295Z,45.41
2018-05-24T00:35:35.716Z,45.40
2018-05-24T00:37:12.436Z,45.39
2018-05-24T00:38:48.780Z,45.37
2018-05-24T00:40:31.333Z,45.38
2018-05-24T00:42:46.828Z,45.36
2018-05-24T00:44:23.617Z,45.35
2018-05-24T00:46:00.870Z,45.32
2018-05-24T00:47:37.703Z,45.32
2018-05-24T00:49:15.659Z,45.31
2018-05-24T00:50:52.846Z,45.30
2018-05-24T00:52:29.633Z,45.29
2018-05-24T00:54:06.742Z,45.28
2018-05-24T00:55:44.138Z,45.30
2018-05-24T00:57:20.410Z,45.30
2018-05-24T00:58:56.941Z,45.33
2018-05-24T01:00:34.618Z,45.29
2018-05-24T01:02:11.247Z,45.26
2018-05-24T01:03:47.607Z,45.25
2018-05-24T01:05:24.672Z,45.24
2018-05-24T01:07:03.689Z,45.24
2018-05-24T01:08:39.985Z,45.21
2018-05-24T01:10:16.430Z,45.19
2018-05-24T01:11:53.439Z,45.25
2018-05-24T01:13:31.021Z,45.19
2018-05-24T01:15:14.895Z,45.18
2018-05-24T01:16:52.789Z,45.18
2018-05-24T01:18:29.511Z,45.19
2018-05-24T01:20:07.877Z,45.17
2018-05-24T01:21:44.411Z,45.15
2018-05-24T01:23:20.750Z,45.12
2018-05-24T01:24:57.080Z,45.13
2018-05-24T01:26:36.247Z,45.13
2018-05-24T01:28:12.775Z,45.13
2018-05-24T01:29:49.149Z,45.12
2018-05-24T01:31:25.737Z,45.11
2018-05-24T01:33:03.214Z,45.10
2018-05-24T01:34:40.519Z,45.09
2018-05-24T01:36:18.294Z,45.09
2018-05-24T01:37:55.459Z,45.12
2018-05-24T01:39:32.169Z,45.12
2018-05-24T01:41:08.788Z,45.12
2018-05-24T01:42:45.570Z,45.13
2018-05-24T01:44:24.419Z,45.12
2018-05-24T01:46:01.057Z,45.12
2018-05-24T01:47:38.200Z,45.12
2018-05-24T01:49:14.967Z,45.11
2018-05-24T01:50:51.277Z,45.09
2018-05-24T01:52:29.289Z,45.10
2018-05-24T01:54:11.702Z,45.08
2018-05-24T01:55:48.065Z,45.03
2018-05-24T01:57:24.501Z,45.01
2018-05-24T01:59:02.091Z,45.00
2018-05-24T02:00:39.100Z,45.01
2018-05-24T02:02:15.475Z,45.01
2018-05-24T02:03:51.757Z,45.01
2018-05-24T02:05:28.468Z,44.99
2018-05-24T02:07:05.112Z,44.99
2018-05-24T02:08:42.490Z,44.93
2018-05-24T02:10:19.521Z,44.92
2018-05-24T02:11:56.181Z,44.91
2018-05-24T02:13:32.416Z,44.90
2018-05-24T02:15:09.202Z,44.90
2018-05-24T02:16:45.507Z,44.89
2018-05-24T02:18:22.818Z,44.90
2018-05-24T02:21:36.421Z,44.88
2018-05-24T02:23:12.918Z,44.85
2018-05-24T02:24:49.319Z,44.84
2018-05-24T02:26:26.040Z,44.82
2018-05-24T02:28:02.531Z,44.83
2018-05-24T02:29:39.788Z,44.81
2018-05-24T02:31:16.257Z,44.83
2018-05-24T02:32:53.789Z,44.84
2018-05-24T02:34:30.491Z,44.81
2018-05-24T02:36:06.983Z,44.79
2018-05-24T02:37:44.067Z,44.80
2018-05-24T02:39:21.067Z,44.80
2018-05-24T02:40:58.215Z,44.80
2018-05-24T02:42:34.589Z,44.79
2018-05-24T02:44:11.508Z,44.80
2018-05-24T02:45:48.702Z,44.78
2018-05-24T02:47:25.130Z,44.78
2018-05-24T02:49:01.695Z,44.79
2018-05-24T02:50:39.021Z,44.76
2018-05-24T02:52:16.092Z,44.76
2018-05-24T02:54:14.527Z,44.75
2018-05-24T02:55:51.018Z,44.76
2018-05-24T02:57:27.772Z,44.75
2018-05-24T02:59:05.062Z,44.74
2018-05-24T03:00:42.667Z,44.72
2018-05-24T03:02:19.995Z,44.75
2018-05-24T03:03:57.056Z,44.76
2018-05-24T03:05:33.649Z,44.74
2018-05-24T03:07:10.109Z,44.72
2018-05-24T03:08:47.149Z,44.70
2018-05-24T03:10:23.842Z,44.71
2018-05-24T03:12:00.490Z,44.73
2018-05-24T03:13:36.826Z,44.73
2018-05-24T03:15:15.651Z,44.74
2018-05-24T03:17:06.141Z,44.75
2018-05-24T03:18:43.008Z,44.74
2018-05-24T03:20:19.399Z,44.72
2018-05-24T03:21:55.826Z,44.73
2018-05-24T03:23:32.674Z,44.73
2018-05-24T03:25:09.750Z,44.73
2018-05-24T03:26:46.066Z,44.73
2018-05-24T03:28:23.049Z,44.71
2018-05-24T03:29:59.967Z,44.72
2018-05-24T03:31:36.738Z,44.72
2018-05-24T03:33:13.948Z,44.70
2018-05-24T03:34:51.686Z,44.70
2018-05-24T03:36:29.150Z,44.70
2018-05-24T03:38:05.565Z,44.73
2018-05-24T03:39:41.961Z,44.71
2018-05-24T03:41:18.886Z,44.70
2018-05-24T03:42:55.627Z,44.72
2018-05-24T03:44:32.272Z,44.72
2018-05-24T03:47:54.690Z,44.72
2018-05-24T03:49:32.111Z,44.71
2018-05-24T03:51:08.653Z,44.73
2018-05-24T03:52:45.295Z,44.72
2018-05-24T03:54:29.436Z,44.73
2018-05-24T03:59:13.872Z,44.72
2018-05-24T04:04:16.945Z,44.72
2018-05-24T04:05:53.614Z,44.72
2018-05-24T04:07:30.710Z,44.73
2018-05-24T04:09:08.285Z,44.73
2018-05-24T04:10:44.701Z,44.75
2018-05-24T04:12:21.535Z,44.78
2018-05-24T04:14:25.666Z,44.78
2018-05-24T04:16:02.309Z,44.79
2018-05-24T04:17:38.637Z,44.81
2018-05-24T04:19:14.996Z,44.82
2018-05-24T04:20:51.480Z,44.82
2018-05-24T04:22:28.656Z,44.80
2018-05-24T04:24:05.500Z,44.80
2018-05-24T04:25:41.893Z,44.82
2018-05-24T04:27:19.034Z,44.81
2018-05-24T04:28:55.395Z,44.84
2018-05-24T04:30:32.144Z,44.86
2018-05-24T04:32:08.508Z,44.87
2018-05-24T04:33:44.847Z,44.91
2018-05-24T04:35:21.897Z,44.94
2018-05-24T04:36:58.652Z,44.98
2018-05-24T04:38:35.082Z,45.02
2018-05-24T04:40:11.495Z,45.05
2018-05-24T04:41:47.965Z,45.06
2018-05-24T04:43:25.582Z,45.09
2018-05-24T04:45:02.056Z,45.11
2018-05-24T04:46:38.840Z,45.09
2018-05-24T04:48:15.222Z,45.08
2018-05-24T04:49:52.299Z,45.05
2018-05-24T04:51:29.262Z,45.04
2018-05-24T04:53:05.706Z,44.99
2018-05-24T04:54:42.106Z,44.97
2018-05-24T04:56:19.034Z,44.99
2018-05-24T04:57:56.175Z,45.02
2018-05-24T04:59:33.392Z,45.03
2018-05-24T05:01:10.264Z,45.06
2018-05-24T05:02:47.909Z,45.04
2018-05-24T05:04:25.447Z,45.03
2018-05-24T05:06:01.871Z,45.04
2018-05-24T05:07:38.220Z,45.05
2018-05-24T05:09:15.124Z,45.10
2018-05-24T05:10:52.199Z,45.14
2018-05-24T05:12:28.584Z,45.15
2018-05-24T05:14:04.950Z,45.15
2018-05-24T05:15:42.765Z,45.18
2018-05-24T05:17:19.064Z,45.19
2018-05-24T05:18:55.386Z,45.22
2018-05-24T05:20:31.852Z,45.25
2018-05-24T05:22:09.067Z,45.27
2018-05-24T05:23:45.841Z,45.26
2018-05-24T05:25:23.024Z,45.28
2018-05-24T05:26:59.374Z,45.30
2018-05-24T05:28:36.208Z,45.33
2018-05-24T05:30:12.524Z,45.35
2018-05-24T05:31:52.102Z,45.35
2018-05-24T05:33:29.223Z,45.33
2018-05-24T05:35:05.917Z,45.37
2018-05-24T05:36:42.251Z,45.40
2018-05-24T05:38:18.651Z,45.43
2018-05-24T05:39:54.873Z,45.46
2018-05-24T05:41:32.696Z,45.49
2018-05-24T05:43:09.078Z,45.49
2018-05-24T05:44:46.340Z,45.53
2018-05-24T05:46:23.232Z,45.55
2018-05-24T05:48:00.343Z,45.58
2018-05-24T05:49:37.758Z,45.60
2018-05-24T05:51:14.396Z,45.64
2018-05-24T05:54:33.564Z,45.74
2018-05-24T05:56:14.375Z,45.79
2018-05-24T05:57:58.717Z,45.81
2018-05-24T05:59:35.885Z,45.85
2018-05-24T06:01:17.957Z,45.84
2018-05-24T06:02:55.325Z,45.88
2018-05-24T06:04:31.803Z,45.91
2018-05-24T06:06:08.644Z,45.95
2018-05-24T06:07:47.754Z,45.99
2018-05-24T06:09:25.298Z,46.03
2018-05-24T06:11:02.185Z,46.09
2018-05-24T06:12:39.921Z,46.15
2018-05-24T06:14:16.361Z,46.18
2018-05-24T06:15:53.272Z,46.21
2018-05-24T06:17:30.680Z,46.25
2018-05-24T06:19:07.413Z,46.27
2018-05-24T06:20:43.757Z,46.33
2018-05-24T06:22:20.487Z,46.37
2018-05-24T06:23:57.635Z,46.43
2018-05-24T06:25:34.543Z,46.48
2018-05-24T06:27:10.922Z,46.53
2018-05-24T06:28:47.423Z,46.58
2018-05-24T06:30:23.997Z,46.61
2018-05-24T06:32:00.857Z,46.65
2018-05-24T06:33:38.001Z,46.68
2018-05-24T06:35:15.961Z,46.74
2018-05-24T06:36:53.917Z,46.79
2018-05-24T06:38:31.981Z,46.84
2018-05-24T06:40:08.356Z,46.88
2018-05-24T06:41:44.685Z,46.91
2018-05-24T06:43:21.506Z,46.97
2018-05-24T06:44:58.522Z,46.98
2018-05-24T06:46:35.350Z,47.02
2018-05-24T06:48:12.584Z,47.08
2018-05-24T06:49:48.970Z,47.11
2018-05-24T06:51:25.856Z,47.18
2018-05-24T06:53:02.985Z,47.24
2018-05-24T06:54:39.499Z,47.29
2018-05-24T06:56:15.894Z,47.33
2018-05-24T06:57:53.662Z,47.38
2018-05-24T06:59:30.055Z,47.42
2018-05-24T07:01:06.824Z,47.48
2018-05-24T07:02:43.143Z,47.51
2018-05-24T07:04:20.234Z,47.57
2018-05-24T07:05:56.896Z,47.59
2018-05-24T07:07:33.924Z,47.61
2018-05-24T07:09:11.859Z,47.63
2018-05-24T07:10:48.759Z,47.66
2018-05-24T07:12:25.593Z,47.71
2018-05-24T07:14:02.014Z,47.73
2018-05-24T07:15:39.228Z,47.76
2018-05-24T07:17:16.353Z,47.78
2018-05-24T07:18:52.957Z,47.83
2018-05-24T07:20:30.438Z,47.87
2018-05-24T07:22:07.468Z,47.93
2018-05-24T07:23:43.793Z,47.99
2018-05-24T07:25:21.199Z,48.04
2018-05-24T07:26:58.538Z,48.12
2018-05-24T07:28:36.458Z,48.16
2018-05-24T07:30:18.070Z,48.22
2018-05-24T07:31:55.070Z,48.26
2018-05-24T07:33:31.452Z,48.28
2018-05-24T07:35:07.800Z,48.33
2018-05-24T07:36:44.586Z,48.34
2018-05-24T07:38:21.675Z,48.38
2018-05-24T07:39:58.873Z,48.38
2018-05-24T07:41:35.456Z,48.43
2018-05-24T07:43:12.968Z,48.46
2018-05-24T07:44:49.269Z,48.49
2018-05-24T07:46:26.490Z,48.54
2018-05-24T07:48:02.892Z,48.59
2018-05-24T07:49:39.704Z,48.64
2018-05-24T07:51:17.593Z,48.68
2018-05-24T07:52:54.447Z,48.71
2018-05-24T07:54:30.861Z,48.75
2018-05-24T07:56:08.290Z,48.79
2018-05-24T07:57:45.165Z,48.84
2018-05-24T07:59:21.568Z,48.89
2018-05-24T08:00:58.786Z,48.96
2018-05-24T08:02:35.262Z,48.99
2018-05-24T08:04:11.549Z,49.01
2018-05-24T08:05:47.960Z,49.05
2018-05-24T08:07:29.567Z,49.10
2018-05-24T08:09:08.059Z,49.16
2018-05-24T08:10:44.739Z,49.19
2018-05-24T08:12:28.806Z,49.22
2018-05-24T08:14:10.341Z,49.27
2018-05-24T08:15:48.051Z,49.33
2018-05-24T08:17:25.802Z,49.39
2018-05-24T08:19:02.139Z,49.46
2018-05-24T08:20:39.470Z,49.52
2018-05-24T08:22:17.953Z,49.54
2018-05-24T08:23:54.500Z,49.56
2018-05-24T08:25:31.833Z,49.63
2018-05-24T08:27:08.249Z,49.66
2018-05-24T08:28:45.625Z,49.72
2018-05-24T08:30:22.069Z,49.74
2018-05-24T08:31:58.401Z,49.76
2018-05-24T08:33:35.517Z,49.79
2018-05-24T08:35:12.494Z,49.83
2018-05-24T08:36:48.789Z,49.88
2018-05-24T08:38:25.126Z,49.92
2018-05-24T08:40:01.482Z,49.96
2018-05-24T08:41:38.331Z,50.01
2018-05-24T08:43:15.713Z,50.02
2018-05-24T08:44:52.084Z,50.03
2018-05-24T08:46:29.765Z,50.05
2018-05-24T08:48:07.333Z,50.09
2018-05-24T08:49:43.751Z,50.12
2018-05-24T08:51:20.117Z,50.16
2018-05-24T08:52:56.659Z,50.20
2018-05-24T08:54:33.170Z,50.24
2018-05-24T08:56:09.444Z,50.27
2018-05-24T08:57:45.931Z,50.29
2018-05-24T08:59:22.285Z,50.33
2018-05-24T09:00:59.193Z,50.36
2018-05-24T09:02:35.870Z,50.40
2018-05-24T09:04:12.353Z,50.44
2018-05-24T09:05:48.627Z,50.48
2018-05-24T09:07:25.404Z,50.53
2018-05-24T09:09:02.582Z,50.55
2018-05-24T09:10:39.695Z,50.56
2018-05-24T09:12:16.908Z,50.57
2018-05-24T09:13:53.587Z,50.58
2018-05-24T09:15:30.293Z,50.60
2018-05-24T09:17:07.423Z,50.63
2018-05-24T09:18:43.815Z,50.65
2018-05-24T09:20:20.475Z,50.72
2018-05-24T09:21:56.855Z,50.75
2018-05-24T09:23:34.225Z,50.77
2018-05-24T09:25:10.592Z,50.78
2018-05-24T09:26:47.488Z,50.84
2018-05-24T09:28:23.820Z,50.89
2018-05-24T09:30:00.225Z,50.92
2018-05-24T09:31:36.997Z,50.93
2018-05-24T09:33:13.782Z,50.95
2018-05-24T09:34:50.977Z,50.98
2018-05-24T09:36:27.620Z,50.99
2018-05-24T09:38:03.937Z,50.99
2018-05-24T09:39:41.343Z,51.03
2018-05-24T09:41:17.719Z,51.05
2018-05-24T09:42:54.171Z,51.07
2018-05-24T09:44:30.444Z,51.07
2018-05-24T09:46:07.794Z,51.09
2018-05-24T09:47:44.421Z,51.14
2018-05-24T09:49:21.003Z,51.17
2018-05-24T09:50:58.252Z,51.19
2018-05-24T09:52:35.815Z,51.19
2018-05-24T09:54:12.235Z,51.22
2018-05-24T09:55:49.630Z,51.25
2018-05-24T09:57:25.958Z,51.27
2018-05-24T09:59:04.143Z,51.29
2018-05-24T10:00:43.109Z,51.31
2018-05-24T10:02:19.426Z,51.33
2018-05-24T10:03:56.090Z,51.34
2018-05-24T10:05:32.995Z,51.35
2018-05-24T10:07:10.155Z,51.37
2018-05-24T10:08:47.843Z,51.42
2018-05-24T10:10:28.097Z,51.44
2018-05-24T10:12:08.775Z,51.46
2018-05-24T10:13:57.350Z,51.50
2018-05-24T10:15:34.607Z,51.54
2018-05-24T10:17:11.969Z,51.58
2018-05-24T10:18:53.111Z,51.62
2018-05-24T10:20:30.711Z,51.63
2018-05-24T10:22:08.227Z,51.67
2018-05-24T10:23:45.383Z,51.70
2018-05-24T10:26:57.369Z,51.76
2018-05-24T10:28:36.492Z,51.79
2018-05-24T10:30:22.426Z,51.79
2018-05-24T10:31:59.491Z,51.80
2018-05-24T10:35:24.398Z,51.87
2018-05-24T10:37:01.658Z,51.90
2018-05-24T10:38:38.338Z,51.94
2018-05-24T10:40:15.695Z,51.95
2018-05-24T10:41:53.064Z,51.99
2018-05-24T10:43:30.268Z,52.01
2018-05-24T10:45:08.307Z,52.04
2018-05-24T10:46:45.593Z,52.06
2018-05-24T10:48:22.246Z,52.08
2018-05-24T10:50:01.086Z,52.11
2018-05-24T10:51:38.538Z,52.15
2018-05-24T10:53:15.206Z,52.17
2018-05-24T10:54:54.887Z,52.21
2018-05-24T10:56:44.741Z,52.28
2018-05-24T10:58:24.881Z,52.30
2018-05-24T11:00:50.478Z,52.34
2018-05-24T11:02:27.881Z,52.39
2018-05-24T11:04:04.827Z,52.39
2018-05-24T11:05:42.050Z,52.44
2018-05-24T11:07:23.245Z,52.44
2018-05-24T11:09:00.234Z,52.45
2018-05-24T11:10:36.626Z,52.47
2018-05-24T11:12:13.233Z,52.51
2018-05-24T11:13:50.732Z,52.56
2018-05-24T11:15:28.171Z,52.60
2018-05-24T11:17:04.605Z,52.60
2018-05-24T11:18:40.968Z,52.64
2018-05-24T11:20:17.299Z,52.66
2018-05-24T11:21:54.181Z,52.70
2018-05-24T11:23:30.580Z,52.73
2018-05-24T11:25:07.077Z,52.74
2018-05-24T11:26:44.209Z,52.77
2018-05-24T11:28:21.008Z,52.78
2018-05-24T11:30:00.795Z,52.78
2018-05-24T11:31:38.955Z,52.82
2018-05-24T11:33:15.280Z,52.84
2018-05-24T11:34:55.339Z,52.85
2018-05-24T11:36:32.595Z,52.89
2018-05-24T11:38:08.892Z,52.93
2018-05-24T11:39:45.210Z,52.99
2018-05-24T11:41:21.562Z,52.97
2018-05-24T11:42:57.905Z,53.00
2018-05-24T11:44:34.395Z,53.01
2018-05-24T11:46:12.037Z,53.02
2018-05-24T11:47:52.964Z,53.03
2018-05-24T11:49:29.329Z,53.05
2018-05-24T11:51:05.686Z,53.09
2018-05-24T11:52:42.114Z,53.11
2018-05-24T11:54:19.492Z,53.12
2018-05-24T11:56:18.525Z,53.17
2018-05-24T11:57:57.634Z,53.18
2018-05-24T11:59:46.432Z,53.20
2018-05-24T12:01:24.502Z,53.21
2018-05-24T12:03:01.078Z,53.22
2018-05-24T12:04:37.998Z,53.24
2018-05-24T12:06:16.715Z,53.25
2018-05-24T12:07:54.570Z,53.26
2018-05-24T12:09:33.447Z,53.26
2018-05-24T12:11:10.218Z,53.28
2018-05-24T12:12:47.288Z,53.31
2018-05-24T12:14:23.712Z,53.34
2018-05-24T12:16:02.378Z,53.36
2018-05-24T12:17:39.041Z,53.34
2018-05-24T12:19:17.037Z,53.37
2018-05-24T12:20:53.766Z,53.39
2018-05-24T12:22:30.353Z,53.42
2018-05-24T12:24:06.667Z,53.45
2018-05-24T12:25:43.704Z,53.46
2018-05-24T12:27:32.570Z,53.47
2018-05-24T12:29:09.118Z,53.47
2018-05-24T12:30:46.507Z,53.48
2018-05-24T12:32:23.237Z,53.47
2018-05-24T12:34:03.017Z,53.48
2018-05-24T12:35:40.059Z,53.49
2018-05-24T12:37:16.983Z,53.52
2018-05-24T12:38:54.683Z,53.55
2018-05-24T12:40:35.351Z,53.56
2018-05-24T12:42:12.354Z,53.59
2018-05-24T12:43:48.863Z,53.60
2018-05-24T12:45:26.667Z,53.63
2018-05-24T12:47:03.071Z,53.64
2018-05-24T12:48:40.866Z,53.67
2018-05-24T12:50:17.866Z,53.65
2018-05-24T12:51:54.517Z,53.63
2018-05-24T12:53:31.338Z,53.66
2018-05-24T12:55:09.102Z,53.65
2018-05-24T12:56:47.039Z,53.62
2018-05-24T12:58:25.935Z,53.62
2018-05-24T13:00:02.777Z,53.64
2018-05-24T13:01:40.533Z,53.63
2018-05-24T13:03:17.723Z,53.63
2018-05-24T13:04:54.750Z,53.65
2018-05-24T13:06:31.051Z,53.62
2018-05-24T13:08:07.711Z,53.64
2018-05-24T13:09:44.146Z,53.61
2018-05-24T13:11:21.354Z,53.61
2018-05-24T13:12:58.813Z,53.65
2018-05-24T13:14:36.024Z,53.63
2018-05-24T13:16:13.068Z,53.60
2018-05-24T13:17:50.768Z,53.60
2018-05-24T13:20:59.345Z,53.59
2018-05-24T13:22:36.597Z,53.56
2018-05-24T13:24:13.111Z,53.57
2018-05-24T13:25:50.374Z,53.55
2018-05-24T13:27:26.853Z,53.55
2018-05-24T13:29:04.480Z,53.56
2018-05-24T13:30:41.195Z,53.55
2018-05-24T13:32:17.604Z,53.52
2018-05-24T13:33:53.938Z,53.54
2018-05-24T13:35:30.974Z,53.51
2018-05-24T13:37:07.895Z,53.49
2018-05-24T13:38:45.133Z,53.48
2018-05-24T13:40:23.408Z,53.52
2018-05-24T13:42:00.529Z,53.50
2018-05-24T13:43:53.703Z,53.47
2018-05-24T13:45:30.496Z,53.44
2018-05-24T13:47:07.104Z,53.43
2018-05-24T13:48:43.921Z,53.46
2018-05-24T13:50:23.186Z,53.43
2018-05-24T13:53:31.955Z,53.44
2018-05-24T13:55:08.298Z,53.43
2018-05-24T13:56:44.540Z,53.39
2018-05-24T13:58:21.244Z,53.37
2018-05-24T13:59:57.687Z,53.38
2018-05-24T14:01:34.395Z,53.38
2018-05-24T14:03:10.647Z,53.38
2018-05-24T14:04:47.455Z,53.36
2018-05-24T14:06:23.773Z,53.39
2018-05-24T14:08:00.616Z,53.31
2018-05-24T14:09:36.985Z,53.33
2018-05-24T14:11:14.637Z,53.30
2018-05-24T14:12:50.897Z,53.29
2018-05-24T14:14:27.230Z,53.26
2018-05-24T14:17:37.649Z,53.23
2018-05-24T14:19:14.871Z,53.24
2018-05-24T14:20:51.845Z,53.20
2018-05-24T14:22:29.158Z,53.19
2018-05-24T14:24:06.211Z,53.18
2018-05-24T14:25:43.140Z,53.16
2018-05-24T14:27:20.677Z,53.16
2018-05-24T14:28:58.462Z,53.13
2018-05-24T14:30:35.104Z,53.12
2018-05-24T14:32:12.294Z,53.10
2018-05-24T14:33:48.686Z,53.06
2018-05-24T14:35:54.796Z,53.06
2018-05-24T14:37:31.070Z,53.02
2018-05-24T14:39:08.598Z,53.01
2018-05-24T14:40:45.279Z,52.99
2018-05-24T14:42:24.327Z,53.00
2018-05-24T14:44:00.993Z,52.98
2018-05-24T14:45:38.540Z,52.98
2018-05-24T14:47:14.944Z,52.98
2018-05-24T14:48:53.046Z,52.92
2018-05-24T14:50:29.565Z,52.87
2018-05-24T14:52:13.286Z,52.81
2018-05-24T14:53:56.031Z,52.75
2018-05-24T14:55:35.923Z,52.71
2018-05-24T14:57:13.768Z,52.69
2018-05-24T14:58:50.473Z,52.66
2018-05-24T15:00:26.971Z,52.65
2018-05-24T15:02:05.236Z,52.63
2018-05-24T15:03:42.808Z,52.62
2018-05-24T15:05:20.148Z,52.63
2018-05-24T15:06:56.616Z,52.62
2018-05-24T15:08:33.484Z,52.65
2018-05-24T15:10:11.026Z,52.68
2018-05-24T15:11:47.523Z,52.71
2018-05-24T15:13:37.794Z,52.74
2018-05-24T15:15:17.029Z,52.76
2018-05-24T15:16:53.600Z,52.81
2018-05-24T15:18:30.070Z,52.85
2018-05-24T15:20:06.877Z,52.89
2018-05-24T15:21:43.329Z,52.91
2018-05-24T15:23:19.831Z,52.91
2018-05-24T15:24:56.297Z,52.92
2018-05-24T15:26:32.735Z,52.95
2018-05-24T15:28:10.867Z,52.98
2018-05-24T15:29:47.698Z,53.02
2018-05-24T15:31:24.199Z,53.06
2018-05-24T15:33:00.599Z,53.09
2018-05-24T15:34:38.335Z,53.13
2018-05-24T15:36:14.950Z,53.16
2018-05-24T15:37:51.432Z,53.18
2018-05-24T15:39:29.129Z,53.21
2018-05-24T15:41:07.050Z,53.28
2018-05-24T15:42:43.553Z,53.27
2018-05-24T15:44:20.576Z,53.32
2018-05-24T15:45:57.869Z,53.34
2018-05-24T15:47:34.306Z,53.41
2018-05-24T15:49:10.779Z,53.45
2018-05-24T15:50:47.241Z,53.47
2018-05-24T15:52:24.177Z,53.52
2018-05-24T15:54:01.254Z,53.56
2018-05-24T15:55:38.381Z,53.61
2018-05-24T15:57:15.534Z,53.64
2018-05-24T15:58:51.979Z,53.66
2018-05-24T16:00:29.478Z,53.72
2018-05-24T16:02:08.275Z,53.75
2018-05-24T16:03:44.672Z,53.79
2018-05-24T16:05:52.616Z,53.82
2018-05-24T16:07:29.081Z,53.86
2018-05-24T16:09:07.602Z,53.86
2018-05-24T16:10:43.998Z,53.94
2018-05-24T16:12:20.414Z,53.94
2018-05-24T16:13:56.872Z,53.99
2018-05-24T16:15:33.344Z,54.02
2018-05-24T16:17:09.813Z,54.04
2018-05-24T16:18:46.714Z,54.08
2018-05-24T16:20:40.434Z,54.12
2018-05-24T16:22:16.890Z,54.15
2018-05-24T16:23:53.574Z,54.17
2018-05-24T16:25:38.713Z,54.20
2018-05-24T16:27:16.159Z,54.24
2018-05-24T16:28:52.549Z,54.26
2018-05-24T16:30:29.452Z,54.29
2018-05-24T16:32:06.373Z,54.31
2018-05-24T16:33:42.991Z,54.34
2018-05-24T16:35:19.440Z,54.38
2018-05-24T16:36:56.404Z,54.42
2018-05-24T16:38:34.222Z,54.43
2018-05-24T16:40:10.994Z,54.46
2018-05-24T16:41:48.344Z,54.47
2018-05-24T16:43:25.951Z,54.48
2018-05-24T16:45:04.005Z,54.52
2018-05-24T16:46:40.560Z,54.53
2018-05-24T16:48:17.687Z,54.55
2018-05-24T16:49:54.511Z,54.57
2018-05-24T16:51:31.687Z,54.60
2018-05-24T16:53:08.387Z,54.61
2018-05-24T16:54:45.041Z,54.63
2018-05-24T16:56:22.522Z,54.64
2018-05-24T16:57:59.773Z,54.66
2018-05-24T16:59:36.250Z,54.69
2018-05-24T17:01:13.264Z,54.71
2018-05-24T17:02:52.089Z,54.75
2018-05-24T17:04:28.981Z,54.75
2018-05-24T17:06:05.422Z,54.77
2018-05-24T17:07:41.988Z,54.79
2018-05-24T17:09:18.416Z,54.82
2018-05-24T17:10:55.010Z,54.83
2018-05-24T17:12:31.536Z,54.86
2018-05-24T17:14:08.688Z,54.89
2018-05-24T17:15:46.119Z,54.92
2018-05-24T17:17:22.633Z,54.94
2018-05-24T17:18:59.092Z,54.95
2018-05-24T17:20:36.085Z,54.97
2018-05-24T17:22:13.078Z,55.02
2018-05-24T17:23:50.048Z,55.03
2018-05-24T17:25:27.429Z,55.04
2018-05-24T17:27:04.215Z,55.06
2018-05-24T17:28:40.736Z,55.08
2018-05-24T17:30:17.740Z,55.12
2018-05-24T17:31:54.218Z,55.14
2018-05-24T17:33:30.949Z,55.15
2018-05-24T17:35:07.662Z,55.17
2018-05-24T17:36:44.154Z,55.19
2018-05-24T17:38:20.670Z,55.21
2018-05-24T17:39:57.735Z,55.22
2018-05-24T17:41:35.832Z,55.25
2018-05-24T17:43:13.231Z,55.27
2018-05-24T17:44:49.630Z,55.29
2018-05-24T17:46:26.451Z,55.31
2018-05-24T17:48:03.917Z,55.32
2018-05-24T17:49:40.353Z,55.33
2018-05-24T17:51:16.929Z,55.34
2018-05-24T17:52:53.765Z,55.37
2018-05-24T17:54:47.872Z,55.38
2018-05-24T17:56:26.507Z,55.39
2018-05-24T17:58:02.922Z,55.42
2018-05-24T17:59:39.399Z,55.43
2018-05-24T18:02:51.930Z,55.46
2018-05-24T18:04:31.522Z,55.47
2018-05-24T18:09:02.792Z,55.52
2018-05-24T18:10:39.107Z,55.53
2018-05-24T18:12:17.008Z,55.55
2018-05-24T18:13:53.353Z,55.56
2018-05-24T18:15:30.079Z,55.57
2018-05-24T18:17:07.390Z,55.58
2018-05-24T18:18:43.745Z,55.57
2018-05-24T18:20:20.838Z,55.59
2018-05-24T18:21:57.105Z,55.60
2018-05-24T18:23:34.914Z,55.61
2018-05-24T18:25:11.191Z,55.62
2018-05-24T18:26:47.836Z,55.64
2018-05-24T18:28:24.206Z,55.65
2018-05-24T18:30:00.585Z,55.68
2018-05-24T18:31:37.281Z,55.68
2018-05-24T18:33:13.946Z,55.68
2018-05-24T18:34:50.310Z,55.69
2018-05-24T18:36:26.935Z,55.70
2018-05-24T18:38:04.031Z,55.71
2018-05-24T18:39:40.771Z,55.72
2018-05-24T18:41:18.545Z,55.72
2018-05-24T18:42:54.838Z,55.73
2018-05-24T18:44:33.425Z,55.74
2018-05-24T18:46:10.666Z,55.75
2018-05-24T18:47:46.994Z,55.75
2018-05-24T18:49:24.126Z,55.75
2018-05-24T18:51:00.499Z,55.76
2018-05-24T18:52:37.946Z,55.76
2018-05-24T18:54:14.514Z,55.79
2018-05-24T18:55:50.769Z,55.79
2018-05-24T18:57:27.322Z,55.80
2018-05-24T18:59:03.658Z,55.80
2018-05-24T19:00:41.192Z,55.81
2018-05-24T19:02:17.527Z,55.82
2018-05-24T19:03:54.723Z,55.82
2018-05-24T19:05:31.263Z,55.85
2018-05-24T19:07:08.328Z,55.86
2018-05-24T19:08:45.445Z,55.87
2018-05-24T19:10:22.035Z,55.88
2018-05-24T19:11:58.609Z,55.89
2018-05-24T19:13:34.918Z,55.90
2018-05-24T19:15:11.483Z,55.91
2018-05-24T19:16:48.860Z,55.91
2018-05-24T19:18:26.506Z,55.91
2018-05-24T19:20:02.791Z,55.91
2018-05-24T19:21:39.277Z,55.92
2018-05-24T19:23:16.431Z,55.91
2018-05-24T19:24:53.058Z,55.91
2018-05-24T19:26:29.489Z,55.92
2018-05-24T19:28:06.670Z,55.91
2018-05-24T19:29:43.710Z,55.92
2018-05-24T19:31:20.563Z,55.92
2018-05-24T19:32:57.182Z,55.92
2018-05-24T19:34:33.442Z,55.93
2018-05-24T19:36:09.782Z,55.93
2018-05-24T19:37:46.521Z,55.93
2018-05-24T19:39:23.416Z,55.95
2018-05-24T19:40:59.721Z,55.96
2018-05-24T19:42:37.695Z,55.95
2018-05-24T19:44:13.997Z,55.96
2018-05-24T19:45:50.822Z,55.98
2018-05-24T19:47:27.368Z,55.99
2018-05-24T19:49:04.266Z,55.99
2018-05-24T19:50:41.293Z,56.00
2018-05-24T19:53:59.758Z,56.02
2018-05-24T19:55:37.943Z,56.03
2018-05-24T19:57:14.611Z,56.03
2018-05-24T19:58:51.010Z,56.04
2018-05-24T20:00:31.192Z,56.06
2018-05-24T20:02:07.604Z,56.05
2018-05-24T20:03:45.170Z,56.07
2018-05-24T20:05:22.597Z,56.08
2018-05-24T20:07:01.434Z,56.08
2018-05-24T20:08:38.636Z,56.08
2018-05-24T20:10:16.487Z,56.10
2018-05-24T20:11:54.674Z,56.10
2018-05-24T20:13:31.311Z,56.11
2018-05-24T20:15:10.954Z,56.12
2018-05-24T20:16:48.791Z,56.14
2018-05-24T20:18:26.562Z,56.14
2018-05-24T20:21:36.470Z,56.16
2018-05-24T20:23:13.232Z,56.18
2018-05-24T20:24:50.605Z,56.18
2018-05-24T20:26:28.445Z,56.20
2018-05-24T20:28:05.897Z,56.22
2018-05-24T20:29:42.749Z,56.22
2018-05-24T20:31:19.501Z,56.23
2018-05-24T20:32:55.939Z,56.24
2018-05-24T20:34:32.333Z,56.24
2018-05-24T20:36:08.916Z,56.26
2018-05-24T20:37:46.182Z,56.27
2018-05-24T20:39:23.723Z,56.29
2018-05-24T20:41:01.694Z,56.29
2018-05-24T20:42:39.226Z,56.31
2018-05-24T20:44:15.873Z,56.33
2018-05-24T20:45:52.908Z,56.34
2018-05-24T20:47:30.254Z,56.35
2018-05-24T20:49:08.301Z,56.36
2018-05-24T20:50:45.883Z,56.38
2018-05-24T20:52:22.851Z,56.38
2018-05-24T20:53:59.440Z,56.41
2018-05-24T20:55:38.380Z,56.41
2018-05-24T20:57:16.006Z,56.43
2018-05-24T20:58:52.720Z,56.44
2018-05-24T21:00:30.787Z,56.45
2018-05-24T21:02:08.005Z,56.46
2018-05-24T21:03:45.169Z,56.47
2018-05-24T21:05:22.176Z,56.49
2018-05-24T21:06:58.604Z,56.51
2018-05-24T21:08:35.610Z,56.51
2018-05-24T21:10:12.910Z,56.53
2018-05-24T21:11:49.894Z,56.54
2018-05-24T21:13:26.408Z,56.55
2018-05-24T21:15:04.637Z,56.57
2018-05-24T21:16:43.084Z,56.60
2018-05-24T21:18:19.485Z,56.61
2018-05-24T21:19:57.859Z,56.64
2018-05-24T21:21:34.597Z,56.65
2018-05-24T21:23:11.675Z,56.66
2018-05-24T21:24:48.441Z,56.68